Time;durP1;ratioP1;P1;durP2;ratioP2;P2;SDS_P1;SDS_P2;PMS_P1;PMS_P2;Temp;Humidity;BMP_temperature;BMP_pressure;BME280_temperature;BME280_humidity;BME280_pressure;Samples;Min_cycle;Max_cycle;Signal;HPM_P1;HPM_P2
2021/10/21 00:01:29;;;;;;;;;0.00;0.00;;;;;14.72;56.35;99302.50;5044585;28;45425;-74
2021/10/21 00:03:54;;;;;;;;;0.00;0.00;;;;;14.77;56.15;99278.78;5044820;28;45454;-74
2021/10/21 00:06:23;;;;;;;;;0.00;0.00;;;;;14.69;56.10;99256.31;5044513;28;47856;-74
2021/10/21 00:08:48;;;;;;;;;0.00;0.00;;;;;14.85;56.04;99274.16;5062806;28;45268;-74
2021/10/21 00:11:14;;;;;;;;;0.00;0.00;;;;;14.88;56.53;99287.16;5062482;28;45823;-75
2021/10/21 00:13:40;;;;;;;;;0.00;0.00;;;;;14.82;56.30;99289.97;5044900;28;45287;-74
2021/10/21 00:16:05;;;;;;;;;0.00;0.00;;;;;14.74;55.90;99257.91;5044159;28;46943;-75
2021/10/21 00:18:31;;;;;;;;;0.00;0.00;;;;;14.88;55.57;99276.69;5044230;28;45761;-74
2021/10/21 00:20:56;;;;;;;;;0.00;0.00;;;;;14.77;55.83;99261.31;5044546;28;45767;-73
2021/10/21 00:23:22;;;;;;;;;0.00;0.00;;;;;14.73;55.88;99264.06;5044608;28;45370;-73
2021/10/21 00:25:47;;;;;;;;;0.00;0.00;;;;;14.93;55.80;99293.13;5044502;28;47560;-73
2021/10/21 00:28:14;;;;;;;;;0.00;0.00;;;;;14.85;55.16;99296.91;5044297;28;45410;-73
2021/10/21 00:30:40;;;;;;;;;0.00;0.00;;;;;14.71;55.32;99261.50;5062648;28;45437;-76
2021/10/21 00:33:05;;;;;;;;;0.00;0.00;;;;;14.79;55.44;99276.97;5044213;28;45339;-74
2021/10/21 00:35:30;;;;;;;;;0.00;0.00;;;;;14.89;55.31;99312.44;5067433;28;46329;-73
2021/10/21 00:37:56;;;;;;;;;0.00;0.00;;;;;14.90;55.46;99287.13;5051024;28;45348;-75
2021/10/21 00:40:22;;;;;;;;;0.00;0.00;;;;;14.76;55.61;99277.06;5068007;28;45279;-75
2021/10/21 00:42:48;;;;;;;;;0.00;0.00;;;;;14.91;55.29;99331.59;5051294;28;45249;-75
2021/10/21 00:45:14;;;;;;;;;0.00;0.00;;;;;14.72;55.45;99292.00;5050689;28;48082;-75
2021/10/21 00:47:39;;;;;;;;;0.00;0.00;;;;;14.73;55.44;99291.09;5067464;28;45300;-75
2021/10/21 00:50:05;;;;;;;;;0.00;0.00;;;;;14.67;55.58;99284.28;5069089;28;45282;-75
2021/10/21 00:52:32;;;;;;;;;0.00;0.00;;;;;14.78;55.54;99317.19;5051070;28;45627;-75
2021/10/21 00:54:57;;;;;;;;;1.00;0.00;;;;;14.82;55.79;99308.31;5068908;28;45527;-75
2021/10/21 00:57:24;;;;;;;;;0.00;0.00;;;;;14.77;55.75;99307.59;5050377;28;45485;-75
2021/10/21 00:59:50;;;;;;;;;0.00;0.00;;;;;14.73;55.41;99298.94;5067586;28;45307;-75
2021/10/21 01:02:16;;;;;;;;;0.00;0.00;;;;;14.46;55.70;99288.47;5068941;28;45493;-75
2021/10/21 01:04:42;;;;;;;;;0.00;0.00;;;;;14.56;55.80;99281.16;5050319;28;46944;-75
2021/10/21 01:07:07;;;;;;;;;0.00;0.00;;;;;14.59;56.33;99354.41;5050355;28;45640;-75
2021/10/21 01:09:35;;;;;;;;;0.00;0.00;;;;;14.54;57.05;99366.75;5050870;28;45350;-75
2021/10/21 01:12:00;;;;;;;;;0.00;0.00;;;;;14.48;57.50;99366.97;5069186;28;45172;-76
2021/10/21 01:14:26;;;;;;;;;0.00;0.00;;;;;14.48;57.40;99382.66;5050381;28;48207;-75
2021/10/21 01:16:52;;;;;;;;;0.00;0.00;;;;;14.35;57.12;99376.91;5067066;28;45280;-75
2021/10/21 01:19:20;;;;;;;;;0.00;0.00;;;;;14.05;57.03;99312.31;5049364;28;45179;-75
2021/10/21 01:21:48;;;;;;;;;0.00;0.00;;;;;14.02;56.77;99342.06;5050637;28;45368;-75
2021/10/21 01:24:13;;;;;;;;;0.00;0.00;;;;;14.13;56.67;99374.91;5068200;28;46376;-75
2021/10/21 01:26:42;;;;;;;;;0.00;0.00;;;;;14.18;56.90;99394.81;5068611;28;45284;-75
2021/10/21 01:29:07;;;;;;;;;0.00;0.00;;;;;14.19;56.67;99399.13;5050579;28;45340;-75
2021/10/21 01:31:33;;;;;;;;;0.00;0.00;;;;;13.93;56.13;99343.16;5068677;28;45384;-75
2021/10/21 01:33:58;;;;;;;;;0.00;0.00;;;;;14.12;56.46;99421.16;5050084;28;48565;-75
2021/10/21 01:36:23;;;;;;;;;0.00;0.00;;;;;14.11;55.93;99406.34;5066927;28;45986;-75
2021/10/21 01:38:49;;;;;;;;;0.00;0.00;;;;;14.15;56.02;99420.22;5067234;28;45366;-74
2021/10/21 01:41:14;;;;;;;;;0.00;0.00;;;;;14.17;55.75;99444.56;5068699;28;45347;-75
2021/10/21 01:43:44;;;;;;;;;0.00;0.00;;;;;14.18;55.89;99452.38;5068301;28;45351;-75
2021/10/21 01:46:10;;;;;;;;;0.00;0.00;;;;;14.08;56.00;99443.06;5066403;28;45406;-75
2021/10/21 01:48:36;;;;;;;;;0.00;0.00;;;;;14.12;56.07;99460.41;5063381;28;45280;-75
2021/10/21 01:51:02;;;;;;;;;0.00;0.00;;;;;13.93;56.04;99486.19;5047226;28;45403;-75
2021/10/21 01:53:28;;;;;;;;;0.00;0.00;;;;;13.90;56.77;99447.03;5064749;28;46347;-75
2021/10/21 01:55:53;;;;;;;;;0.00;0.00;;;;;13.88;56.86;99436.59;5046572;28;45455;-75
2021/10/21 01:58:19;;;;;;;;;0.00;0.00;;;;;13.67;57.30;99475.50;5046626;28;45404;-76
2021/10/21 02:00:44;;;;;;;;;0.00;0.00;;;;;13.74;57.11;99491.00;5047041;28;45524;-75
2021/10/21 02:03:09;;;;;;;;;0.00;0.00;;;;;13.76;56.43;99491.84;5046256;28;47081;-75
2021/10/21 02:05:35;;;;;;;;;0.00;0.00;;;;;13.36;56.63;99416.09;5046370;28;45775;-75
2021/10/21 02:08:00;;;;;;;;;0.00;0.00;;;;;13.76;56.44;99520.63;5046529;28;45420;-75
2021/10/21 02:10:26;;;;;;;;;0.00;0.00;;;;;13.79;56.15;99525.78;5046893;28;45472;-75
2021/10/21 02:12:51;;;;;;;;;0.00;0.00;;;;;13.75;56.34;99509.28;5046150;28;46982;-75
2021/10/21 02:15:17;;;;;;;;;0.00;0.00;;;;;13.77;55.80;99515.34;5064419;28;45233;-75
2021/10/21 02:17:42;;;;;;;;;0.00;0.00;;;;;13.73;55.87;99521.56;5064334;28;45351;-75
2021/10/21 02:20:09;;;;;;;;;0.00;0.00;;;;;13.71;55.13;99538.16;5064727;28;45325;-75
2021/10/21 02:22:36;;;;;;;;;0.00;0.00;;;;;13.65;55.20;99566.19;5045992;28;47332;-75
2021/10/21 02:25:01;;;;;;;;;0.00;0.00;;;;;13.67;54.92;99568.78;5064327;28;45245;-75
2021/10/21 02:27:27;;;;;;;;;0.00;0.00;;;;;13.16;55.27;99514.06;5064297;28;45460;-75
2021/10/21 02:29:53;;;;;;;;;0.00;0.00;;;;;13.51;55.40;99576.09;5046432;28;45368;-75
2021/10/21 02:32:18;;;;;;;;;0.00;0.00;;;;;13.51;55.46;99587.41;5045668;28;47098;-75
2021/10/21 02:34:43;;;;;;;;;0.00;0.00;;;;;13.36;55.33;99591.19;5064184;28;45276;-75
2021/10/21 02:37:09;;;;;;;;;0.00;0.00;;;;;13.40;55.27;99597.22;5064267;28;45241;-75
2021/10/21 02:39:34;;;;;;;;;0.00;0.00;;;;;13.57;55.69;99651.78;5046190;28;45287;-75
2021/10/21 02:41:59;;;;;;;;;0.00;0.00;;;;;13.12;55.92;99543.78;5045794;28;47514;-75
2021/10/21 02:44:25;;;;;;;;;0.00;0.00;;;;;13.52;55.59;99685.88;5045795;28;45743;-75
2021/10/21 02:46:50;;;;;;;;;0.00;0.00;;;;;13.38;55.97;99665.19;5063858;28;45546;-74
2021/10/21 02:49:16;;;;;;;;;0.00;0.00;;;;;13.45;56.02;99686.88;5064141;28;45449;-74
2021/10/21 02:51:41;;;;;;;;;0.00;0.00;;;;;13.34;56.02;99686.19;5045663;28;47035;-74
2021/10/21 02:54:07;;;;;;;;;0.00;0.00;;;;;13.45;56.14;99715.63;5062606;28;45406;-74
2021/10/21 02:56:33;;;;;;;;;0.00;0.00;;;;;13.37;56.33;99721.00;5045536;28;45282;-74
2021/10/21 02:58:58;;;;;;;;;0.00;0.00;;;;;13.18;56.53;99710.88;5045298;28;45344;-74
2021/10/21 03:01:24;;;;;;;;;0.00;0.00;;;;;13.23;56.57;99752.59;5045165;28;47360;-74
2021/10/21 03:03:49;;;;;;;;;0.00;0.00;;;;;13.21;56.73;99774.44;5045313;28;45305;-74
2021/10/21 03:06:14;;;;;;;;;0.00;0.00;;;;;13.05;57.29;99732.91;5045622;28;45445;-74
2021/10/21 03:08:40;;;;;;;;;0.00;0.00;;;;;13.01;57.05;99739.06;5045400;28;45518;-74
2021/10/21 03:11:05;;;;;;;;;0.00;0.00;;;;;13.21;57.60;99818.84;5045204;28;48231;-74
2021/10/21 03:13:31;;;;;;;;;0.00;0.00;;;;;13.08;57.56;99829.50;5063457;28;45260;-74
2021/10/21 03:15:56;;;;;;;;;0.00;0.00;;;;;13.24;57.67;99852.78;5061864;28;45318;-74
2021/10/21 03:18:22;;;;;;;;;0.00;0.00;;;;;13.15;57.43;99801.53;5063538;28;45503;-74
2021/10/21 03:20:47;;;;;;;;;0.00;0.00;;;;;13.17;57.45;99905.16;5060626;28;46855;-73
2021/10/21 03:23:13;;;;;;;;;0.00;0.00;;;;;12.89;57.98;99882.03;5044920;28;45248;-74
2021/10/21 03:25:38;;;;;;;;;2.00;2.00;;;;;12.97;58.35;99931.56;5045084;28;45389;-73
2021/10/21 03:28:04;;;;;;;;;0.00;0.00;;;;;12.93;58.11;99941.19;5045673;28;45495;-74
2021/10/21 03:30:29;;;;;;;;;0.00;0.00;;;;;12.94;58.24;99962.97;5063069;28;45344;-73
2021/10/21 03:32:54;;;;;;;;;0.00;0.00;;;;;12.90;58.55;100000.47;5062872;28;46042;-74
2021/10/21 03:35:20;;;;;;;;;0.00;0.00;;;;;12.80;58.40;99990.13;5063004;28;45297;-74
2021/10/21 03:37:45;;;;;;;;;0.00;0.00;;;;;12.68;58.98;99992.88;5045143;28;45623;-75
2021/10/21 03:40:12;;;;;;;;;0.00;0.00;;;;;12.77;59.05;100067.66;5063013;28;45481;-74
2021/10/21 03:42:38;;;;;;;;;1.00;0.00;;;;;12.67;60.17;100104.31;5044687;28;45355;-74
2021/10/21 03:45:05;;;;;;;;;0.00;0.00;;;;;12.44;60.17;100091.50;5045052;28;45313;-75
2021/10/21 03:47:31;;;;;;;;;0.00;0.00;;;;;12.46;60.59;100087.09;5062721;28;45267;-74
2021/10/21 03:49:56;;;;;;;;;0.00;0.00;;;;;12.39;60.23;100115.03;5062485;28;45237;-75
2021/10/21 03:52:22;;;;;;;;;0.00;0.00;;;;;12.45;59.87;100166.31;5061258;28;45332;-75
2021/10/21 03:54:48;;;;;;;;;0.00;0.00;;;;;12.33;59.86;100135.09;5044752;28;45403;-74
2021/10/21 03:57:15;;;;;;;;;0.00;0.00;;;;;12.29;60.35;100179.47;5062933;28;45383;-73
2021/10/21 03:59:40;;;;;;;;;0.00;0.00;;;;;12.21;60.45;100185.63;5062475;28;45375;-74
2021/10/21 04:02:06;;;;;;;;;0.00;0.00;;;;;12.07;60.04;100183.97;5062397;28;45430;-74
2021/10/21 04:04:32;;;;;;;;;0.00;0.00;;;;;12.13;60.40;100222.22;5062263;28;45335;-74
2021/10/21 04:06:57;;;;;;;;;0.00;0.00;;;;;12.14;60.41;100235.25;5061045;28;45273;-73
2021/10/21 04:09:22;;;;;;;;;0.00;0.00;;;;;12.11;59.86;100223.97;5061226;28;45437;-74
2021/10/21 04:11:48;;;;;;;;;0.50;0.50;;;;;12.12;60.05;100246.56;5054503;28;45256;-74
2021/10/21 04:14:13;;;;;;;;;0.00;0.00;;;;;12.02;59.22;100237.91;5023732;28;45271;-74
2021/10/21 04:16:39;;;;;;;;;0.00;0.00;;;;;12.07;59.17;100264.00;5042251;28;45212;-74
2021/10/21 04:19:04;;;;;;;;;0.00;0.00;;;;;12.13;59.30;100274.41;5041841;28;45291;-74
2021/10/21 04:21:30;;;;;;;;;0.00;0.00;;;;;12.11;59.32;100269.19;5042225;28;45289;-74
2021/10/21 04:23:55;;;;;;;;;0.00;0.00;;;;;11.98;59.60;100270.09;5024162;28;45295;-73
2021/10/21 04:26:22;;;;;;;;;0.00;0.00;;;;;12.05;59.41;100282.22;5024517;28;45221;-74
2021/10/21 04:28:47;;;;;;;;;0.00;0.00;;;;;12.08;59.68;100303.13;5041996;28;46763;-74
2021/10/21 04:31:13;;;;;;;;;0.00;0.00;;;;;12.13;59.73;100308.31;5041895;28;45426;-75
2021/10/21 04:33:38;;;;;;;;;0.00;0.00;;;;;11.31;59.89;100179.97;5024092;28;45407;-75
2021/10/21 04:36:05;;;;;;;;;0.00;0.00;;;;;12.12;59.37;100317.88;5024312;28;45413;-75
2021/10/21 04:38:30;;;;;;;;;0.00;0.00;;;;;11.88;59.23;100305.75;5023857;28;47176;-76
2021/10/21 04:40:56;;;;;;;;;1.00;0.00;;;;;11.96;59.44;100335.31;5023752;28;45316;-74
2021/10/21 04:43:21;;;;;;;;;1.00;1.00;;;;;12.15;59.58;100356.13;5041798;28;45363;-74
2021/10/21 04:45:46;;;;;;;;;0.00;0.00;;;;;11.87;59.43;100289.25;5042107;28;45301;-74
2021/10/21 04:48:12;;;;;;;;;0.25;0.00;;;;;12.07;59.53;100356.16;5041495;28;45619;-74
2021/10/21 04:50:38;;;;;;;;;0.00;0.00;;;;;12.01;59.48;100359.63;5030520;28;45345;-74
2021/10/21 04:53:04;;;;;;;;;0.00;0.00;;;;;12.21;59.77;100381.34;5057593;28;45401;-74
2021/10/21 04:55:29;;;;;;;;;0.00;0.00;;;;;11.98;60.13;100361.41;5082420;28;45236;-74
2021/10/21 04:57:55;;;;;;;;;0.00;0.00;;;;;12.32;59.59;100408.28;5081807;28;45379;-75
2021/10/21 05:00:21;;;;;;;;;0.00;0.00;;;;;12.16;59.71;100369.19;5061233;28;45453;-76
2021/10/21 05:02:46;;;;;;;;;0.00;0.00;;;;;12.02;59.89;100358.78;5064390;28;45384;-78
2021/10/21 05:05:12;;;;;;;;;0.00;0.00;;;;;12.13;59.96;100386.59;5059865;28;45241;-76
2021/10/21 05:07:38;;;;;;;;;3.75;0.00;;;;;12.28;59.79;100417.84;5061126;28;45412;-75
2021/10/21 05:10:05;;;;;;;;;0.00;0.00;;;;;12.07;59.81;100399.66;5040509;28;45542;-76
2021/10/21 05:12:31;;;;;;;;;0.00;0.00;;;;;12.35;59.86;100446.53;5023421;28;45391;-75
2021/10/21 05:14:56;;;;;;;;;0.00;0.00;;;;;12.21;59.78;100426.56;5054904;28;45498;-75
2021/10/21 05:17:22;;;;;;;;;0.00;0.00;;;;;12.29;59.34;100447.44;5039662;28;46753;-75
2021/10/21 05:19:48;;;;;;;;;0.00;0.00;;;;;12.23;59.30;100437.00;5057969;28;45297;-76
2021/10/21 05:22:17;;;;;;;;;0.00;0.00;;;;;12.15;59.53;100418.75;5046156;28;45339;-83
2021/10/21 05:24:43;;;;;;;;;0.00;0.00;;;;;12.02;59.07;100416.16;5044470;28;45570;-75
2021/10/21 05:27:11;;;;;;;;;0.00;0.00;;;;;12.16;58.80;100450.06;5035445;28;45471;-77
2021/10/21 05:29:36;;;;;;;;;0.00;0.00;;;;;12.25;58.61;100464.84;5044157;28;45533;-75
2021/10/21 05:32:06;;;;;;;;;0.00;0.00;;;;;12.32;58.62;100465.69;5036594;28;45332;-75
2021/10/21 05:34:35;;;;;;;;;0.00;0.00;;;;;12.45;58.80;100491.75;5028776;28;45498;-75
2021/10/21 05:37:02;;;;;;;;;0.00;0.00;;;;;12.45;58.39;100495.25;5026100;28;47340;-77
2021/10/21 05:39:29;;;;;;;;;1.00;1.00;;;;;12.13;58.64;100457.06;5043978;28;45442;-76
2021/10/21 05:41:54;;;;;;;;;0.25;0.00;;;;;12.45;58.79;100510.91;5044586;28;45423;-76
2021/10/21 05:44:20;;;;;;;;;0.00;0.00;;;;;12.30;58.18;100480.50;5044696;28;45257;-75
2021/10/21 05:46:48;;;;;;;;;0.00;0.00;;;;;12.34;58.41;100492.66;5043503;28;46388;-78
2021/10/21 05:49:16;;;;;;;;;0.00;0.00;;;;;12.43;58.35;100504.81;5043952;28;45433;-77
2021/10/21 05:51:42;;;;;;;;;0.00;0.00;;;;;12.51;58.54;100512.63;5025849;28;45482;-76
2021/10/21 05:54:07;;;;;;;;;0.00;0.00;;;;;12.44;58.40;100482.19;5042893;28;45456;-76
2021/10/21 05:56:33;;;;;;;;;0.00;0.00;;;;;12.63;58.23;100520.44;5042803;28;45469;-76
2021/10/21 05:58:58;;;;;;;;;0.00;0.00;;;;;12.73;58.32;100544.75;5041606;28;45503;-75
2021/10/21 06:01:23;;;;;;;;;0.00;0.00;;;;;12.57;58.21;100512.59;5024795;28;45391;-75
2021/10/21 06:03:49;;;;;;;;;0.00;0.00;;;;;12.57;58.48;100507.38;5044047;28;45426;-74
2021/10/21 06:06:14;;;;;;;;;1.00;0.00;;;;;12.79;58.23;100530.81;5025848;28;47027;-78
2021/10/21 06:08:40;;;;;;;;;0.00;0.00;;;;;12.83;58.36;100542.97;5040600;28;45183;-78
2021/10/21 06:11:08;;;;;;;;;0.00;0.00;;;;;12.50;58.33;100493.47;5043421;28;45293;-78
2021/10/21 06:13:34;;;;;;;;;0.00;0.00;;;;;12.77;58.35;100558.69;5042946;28;45558;-78
2021/10/21 06:16:00;;;;;;;;;1.00;0.00;;;;;12.59;58.75;100530.88;5041796;28;47022;-79
2021/10/21 06:18:26;;;;;;;;;0.00;0.00;;;;;12.60;58.67;100536.09;5043778;28;45274;-77
2021/10/21 06:20:51;;;;;;;;;0.00;0.00;;;;;12.53;58.80;100534.38;5043386;28;45372;-78
2021/10/21 06:23:17;;;;;;;;;0.00;0.00;;;;;12.73;58.97;100572.63;5041868;28;45502;-82
2021/10/21 06:25:42;;;;;;;;;0.00;0.00;;;;;12.72;58.99;100563.06;5045960;28;45389;-77
2021/10/21 06:28:08;;;;;;;;;0.00;0.00;;;;;12.44;59.81;100526.56;5051991;28;45340;-77
2021/10/21 06:30:36;;;;;;;;;0.25;0.00;;;;;12.24;59.82;100511.81;5053045;28;45199;-80
2021/10/21 06:33:03;;;;;;;;;0.00;0.00;;;;;12.56;60.00;100562.22;5052015;28;45610;-79
2021/10/21 06:35:29;;;;;;;;;0.00;0.00;;;;;12.29;60.40;100536.19;5051478;28;45744;-80
2021/10/21 06:37:54;;;;;;;;;0.00;0.00;;;;;12.06;60.52;100516.16;5053020;28;45551;-79
2021/10/21 06:40:20;;;;;;;;;0.00;0.00;;;;;12.09;59.92;100517.91;5042671;28;45321;-79
2021/10/21 06:42:45;;;;;;;;;0.00;0.00;;;;;12.49;60.88;100582.25;5042625;28;45545;-79
2021/10/21 06:45:11;;;;;;;;;1.00;0.00;;;;;12.45;60.94;100585.72;5043027;28;45774;-79
2021/10/21 06:47:43;;;;;;;;;0.00;0.00;;;;;12.20;61.22;100562.28;5042242;28;45422;-80
2021/10/21 06:50:10;;;;;;;;;0.00;0.00;;;;;12.24;61.25;100572.72;5042049;28;45414;-78
2021/10/21 06:52:37;;;;;;;;;0.00;0.00;;;;;12.20;61.62;100559.66;5058645;28;45367;-80
2021/10/21 06:55:03;;;;;;;;;0.00;0.00;;;;;12.35;61.65;100592.72;5044619;28;46168;-80
2021/10/21 06:57:28;;;;;;;;;0.00;0.00;;;;;12.14;61.36;100561.44;5051266;28;45544;-79
2021/10/21 06:59:54;;;;;;;;;0.00;0.00;;;;;12.33;61.55;100595.31;5050938;28;45267;-75
2021/10/21 07:02:19;;;;;;;;;0.00;0.00;;;;;12.33;61.35;100597.94;5031660;28;45364;-76
2021/10/21 07:04:44;;;;;;;;;0.00;0.00;;;;;12.25;61.68;100591.88;5040743;28;45440;-74
2021/10/21 07:07:10;;;;;;;;;0.00;0.00;;;;;12.27;61.72;100596.22;5040238;28;45773;-74
2021/10/21 07:09:35;;;;;;;;;1.75;0.00;;;;;12.36;61.64;100623.16;5041066;28;45629;-74
2021/10/21 07:12:00;;;;;;;;;0.00;0.00;;;;;12.29;61.94;100627.53;5043089;28;45296;-76
2021/10/21 07:14:26;;;;;;;;;0.00;0.00;;;;;12.19;61.65;100607.53;5040858;28;47263;-77
2021/10/21 07:16:51;;;;;;;;;0.00;0.00;;;;;12.40;61.79;100657.09;5039877;28;45242;-76
2021/10/21 07:19:16;;;;;;;;;0.00;0.00;;;;;12.09;61.61;100589.25;5057780;28;45219;-76
2021/10/21 07:21:42;;;;;;;;;0.00;0.00;;;;;12.27;61.51;100618.81;5041359;28;45230;-76
2021/10/21 07:24:07;;;;;;;;;0.50;0.50;;;;;12.18;61.71;100598.81;5039988;28;47160;-76
2021/10/21 07:26:33;;;;;;;;;0.00;0.00;;;;;12.50;61.47;100650.13;5040814;28;45618;-76
2021/10/21 07:28:58;;;;;;;;;0.00;0.00;;;;;12.44;61.33;100636.22;5041409;28;45358;-76
2021/10/21 07:31:25;;;;;;;;;0.00;0.00;;;;;12.61;61.22;100667.53;5041856;28;45308;-76
2021/10/21 07:33:51;;;;;;;;;0.00;0.00;;;;;12.60;60.94;100656.22;5041911;28;46404;-76
2021/10/21 07:36:17;;;;;;;;;0.00;0.00;;;;;12.56;60.99;100641.44;5039412;28;45458;-74
2021/10/21 07:38:43;;;;;;;;;0.00;0.00;;;;;12.55;61.02;100650.13;5038859;28;45371;-74
2021/10/21 07:41:08;;;;;;;;;0.00;0.00;;;;;12.42;60.89;100628.38;5041001;28;45322;-77
2021/10/21 07:43:36;;;;;;;;;0.25;0.25;;;;;12.66;60.90;100679.72;5040510;28;46646;-76
2021/10/21 07:46:02;;;;;;;;;0.00;0.00;;;;;12.75;60.57;100686.69;5041733;28;45332;-76
2021/10/21 07:48:28;;;;;;;;;0.00;0.00;;;;;12.62;60.93;100669.28;5044445;28;45342;-76
2021/10/21 07:50:53;;;;;;;;;0.00;0.00;;;;;12.80;60.83;100713.66;5044940;28;45426;-76
2021/10/21 07:53:18;;;;;;;;;0.00;0.00;;;;;12.73;60.82;100696.25;5041892;28;46822;-75
2021/10/21 07:55:44;;;;;;;;;0.00;0.00;;;;;12.52;60.65;100665.78;5041515;28;45392;-75
2021/10/21 07:58:09;;;;;;;;;0.00;0.00;;;;;12.64;61.02;100689.28;5052554;28;45362;-74
2021/10/21 08:00:35;;;;;;;;;0.00;0.00;;;;;12.75;60.81;100698.88;5048343;28;45412;-75
2021/10/21 08:03:01;;;;;;;;;0.00;0.00;;;;;12.57;61.13;100673.63;5039216;28;47005;-74
2021/10/21 08:05:28;;;;;;;;;0.00;0.00;;;;;12.64;61.19;100683.19;5041964;28;45335;-75
2021/10/21 08:07:54;;;;;;;;;0.00;0.00;;;;;12.87;60.86;100704.09;5040483;28;45306;-72
2021/10/21 08:10:20;;;;;;;;;0.00;0.00;;;;;12.94;60.35;100725.84;5040346;28;45537;-74
2021/10/21 08:12:49;;;;;;;;;0.00;0.00;;;;;12.83;60.34;100710.16;5036706;28;47877;-74
2021/10/21 08:15:15;;;;;;;;;0.00;0.00;;;;;12.99;60.30;100731.91;5038173;28;45344;-73
2021/10/21 08:17:43;;;;;;;;;0.00;0.00;;;;;12.91;60.23;100712.78;5038612;28;45647;-73
2021/10/21 08:20:11;;;;;;;;;0.00;0.00;;;;;12.86;60.34;100717.16;5040098;28;45343;-74
2021/10/21 08:22:41;;;;;;;;;0.00;0.00;;;;;12.87;60.12;100692.75;5040025;28;47163;-73
2021/10/21 08:25:08;;;;;;;;;0.50;0.50;;;;;12.88;60.38;100692.75;5039085;28;45442;-73
2021/10/21 08:27:33;;;;;;;;;0.00;0.00;;;;;12.93;59.85;100714.50;5041020;28;45399;-73
2021/10/21 08:29:59;;;;;;;;;0.00;0.00;;;;;13.17;59.67;100735.38;5038150;28;45360;-74
2021/10/21 08:32:24;;;;;;;;;0.00;0.00;;;;;13.18;59.96;100743.19;5033299;28;47178;-74
2021/10/21 08:34:49;;;;;;;;;0.75;0.00;;;;;12.89;60.01;100683.16;5034938;28;45558;-75
2021/10/21 08:37:15;;;;;;;;;0.00;0.00;;;;;13.28;59.52;100738.84;5056631;28;45429;-75
2021/10/21 08:39:42;;;;;;;;;0.00;0.00;;;;;13.29;59.46;100744.91;5040587;28;45209;-75
2021/10/21 08:42:10;;;;;;;;;0.00;0.00;;;;;13.18;59.66;100706.59;5041092;28;46166;-73
2021/10/21 08:44:39;;;;;;;;;0.00;0.00;;;;;13.51;59.42;100743.13;5040637;28;45437;-74
2021/10/21 08:47:07;;;;;;;;;0.00;0.00;;;;;13.42;59.53;100725.72;5038705;28;45221;-75
2021/10/21 08:49:32;;;;;;;;;1.00;0.00;;;;;13.57;59.14;100733.56;5040029;28;45202;-74
2021/10/21 08:51:58;;;;;;;;;0.00;0.00;;;;;13.64;58.65;100750.97;5040447;28;46483;-75
2021/10/21 08:54:24;;;;;;;;;1.00;1.00;;;;;13.80;58.85;100760.50;5040848;28;45379;-74
2021/10/21 08:56:49;;;;;;;;;3.75;0.00;;;;;13.65;58.66;100732.66;5041618;28;45498;-74
2021/10/21 08:59:15;;;;;;;;;0.00;0.00;;;;;13.76;58.32;100732.59;5045187;28;45335;-74
2021/10/21 09:01:44;;;;;;;;;0.00;0.00;;;;;13.88;58.31;100749.97;5042489;28;46875;-76
2021/10/21 09:09:04;;;;;;;;;0.00;0.00;;;;;14.35;56.91;100730.50;5048550;28;45309;-74
2021/10/21 09:11:30;;;;;;;;;0.00;0.00;;;;;14.41;57.05;100747.06;5021293;28;47216;-74
2021/10/21 09:14:11;;;;;;;;;0.00;0.00;;;;;14.28;56.51;100746.25;5006456;28;45335;-76
2021/10/21 09:16:39;;;;;;;;;0.00;0.00;;;;;14.28;56.42;100758.47;5030558;28;45204;-75
2021/10/21 09:19:12;;;;;;;;;0.00;0.00;;;;;14.17;56.92;100750.69;5024877;28;45588;-80
2021/10/21 09:21:42;;;;;;;;;0.00;0.00;;;;;14.16;56.87;100748.97;5014330;28;47135;-75
2021/10/21 09:24:26;;;;;;;;;0.00;0.00;;;;;14.13;56.51;100712.31;5014805;28;46012;-76
2021/10/21 09:27:13;;;;;;;;;0.25;0.00;;;;;14.34;56.23;100745.34;5020504;28;45524;-76
2021/10/21 09:29:46;;;;;;;;;0.00;0.00;;;;;14.54;55.99;100747.81;5023588;28;45385;-77
2021/10/21 09:32:22;;;;;;;;;0.00;0.00;;;;;14.77;55.37;100772.09;5040902;28;45893;-77
2021/10/21 09:34:52;;;;;;;;;0.00;0.00;;;;;14.83;55.02;100761.59;5023652;28;45859;-77
2021/10/21 09:37:25;;;;;;;;;0.00;0.00;;;;;14.38;54.84;100668.50;5043025;28;45415;-76
2021/10/21 09:39:53;;;;;;;;;0.00;0.00;;;;;14.73;54.04;100741.56;5027005;28;45426;-77
2021/10/21 09:42:28;;;;;;;;;0.00;0.00;;;;;14.79;53.96;100746.75;5041283;28;45454;-77
2021/10/21 09:45:09;;;;;;;;;0.00;0.00;;;;;14.77;54.59;100744.16;5029982;28;45560;-76
2021/10/21 09:47:37;;;;;;;;;0.00;0.00;;;;;14.78;54.66;100745.03;5033949;28;45413;-75
2021/10/21 09:50:16;;;;;;;;;0.50;0.00;;;;;14.86;54.41;100761.59;5034544;28;45389;-78
2021/10/21 09:52:41;;;;;;;;;0.00;0.00;;;;;14.72;54.27;100735.44;5041631;28;46215;-77
2021/10/21 09:55:10;;;;;;;;;1.00;0.00;;;;;14.91;54.18;100778.13;5040660;28;45481;-76
2021/10/21 09:57:35;;;;;;;;;0.00;0.00;;;;;14.88;54.23;100762.41;5024904;28;45413;-77
2021/10/21 10:00:06;;;;;;;;;0.00;0.00;;;;;15.00;54.49;100779.78;5040713;28;45496;-76
2021/10/21 10:02:35;;;;;;;;;0.25;0.00;;;;;15.00;54.02;100744.84;5026341;28;46287;-80
2021/10/21 10:05:04;;;;;;;;;0.00;0.00;;;;;15.18;53.85;100765.63;5018919;28;45974;-77
2021/10/21 10:07:33;;;;;;;;;0.00;0.00;;;;;15.13;52.82;100764.81;5020903;28;45558;-77
2021/10/21 10:10:01;;;;;;;;;0.00;0.00;;;;;15.32;52.71;100762.84;5064333;28;45422;-79
2021/10/21 10:12:29;;;;;;;;;0.00;0.00;;;;;14.78;52.59;100666.44;5069481;28;46099;-77
2021/10/21 10:14:55;;;;;;;;;0.00;0.00;;;;;14.73;53.25;100671.69;5062110;28;45331;-77
2021/10/21 10:17:21;;;;;;;;;0.00;0.00;;;;;14.97;52.48;100710.81;5061748;28;45304;-77
2021/10/21 10:19:49;;;;;;;;;0.00;0.00;;;;;15.14;53.32;100742.97;5065076;28;45567;-77
2021/10/21 10:22:25;;;;;;;;;0.00;0.00;;;;;15.43;53.28;100773.25;5044385;28;47607;-77
2021/10/21 10:24:50;;;;;;;;;0.00;0.00;;;;;15.25;52.93;100736.75;5066731;28;45797;-75
2021/10/21 10:27:23;;;;;;;;;0.00;0.00;;;;;15.40;53.26;100764.53;5075511;28;45550;-76
2021/10/21 10:29:49;;;;;;;;;0.00;0.00;;;;;15.41;53.57;100766.28;5068253;28;45339;-82
2021/10/21 10:32:34;;;;;;;;;0.00;0.00;;;;;15.49;52.97;100751.31;5054565;28;48684;-82
2021/10/21 10:35:01;;;;;;;;;0.00;0.00;;;;;15.25;53.89;100716.59;5048110;28;45322;-81
2021/10/21 10:37:26;;;;;;;;;0.00;0.00;;;;;15.55;52.87;100766.09;5076021;28;45221;-85
2021/10/21 10:39:57;;;;;;;;;0.00;0.00;;;;;15.44;53.70;100742.66;5060909;28;44984;-83
2021/10/21 10:42:31;;;;;;;;;0.00;0.00;;;;;15.59;53.55;100767.81;5073876;28;48240;-82
2021/10/21 10:44:57;;;;;;;;;0.00;0.00;;;;;15.55;53.20;100764.38;5074366;28;45275;-83
2021/10/21 10:47:53;;;;;;;;;0.00;0.00;;;;;15.42;53.43;100763.66;5074003;28;44864;-84
2021/10/21 10:50:22;;;;;;;;;0.00;0.00;;;;;15.35;53.71;100759.34;5091964;27;44807;-84
2021/10/21 10:52:50;;;;;;;;;0.00;0.00;;;;;15.19;54.44;100763.88;5076877;28;46885;-81
2021/10/21 10:55:17;;;;;;;;;0.00;0.00;;;;;14.90;55.42;100750.19;5061747;28;45414;-82
2021/10/21 10:57:43;;;;;;;;;0.00;0.00;;;;;14.95;56.48;100781.59;5033973;28;45330;-82
2021/10/21 11:00:35;;;;;;;;;0.00;0.00;;;;;14.80;57.30;100783.44;5043988;28;45824;-82
2021/10/21 11:03:01;;;;;;;;;0.00;0.00;;;;;14.26;58.00;100700.00;5059450;28;48420;-82
2021/10/21 11:05:45;;;;;;;;;0.00;0.00;;;;;14.69;58.37;100788.75;5067639;28;45379;-83
2021/10/21 11:08:12;;;;;;;;;0.00;0.00;;;;;14.33;59.56;100735.75;5062882;28;45467;-83
2021/10/21 11:10:44;;;;;;;;;0.00;0.00;;;;;14.58;59.82;100785.34;5028893;28;45390;-83
2021/10/21 11:13:21;;;;;;;;;0.00;0.00;;;;;14.38;59.73;100756.66;5026964;28;46603;-84
2021/10/21 11:15:48;;;;;;;;;0.00;0.00;;;;;14.27;59.86;100715.72;5057819;28;45374;-83
2021/10/21 11:18:44;;;;;;;;;0.00;0.00;;;;;14.64;60.41;100753.84;5043362;28;45439;-83
2021/10/21 11:21:48;;;;;;;;;0.00;0.00;;;;;14.78;60.48;100773.88;5059713;28;45453;-85
2021/10/21 11:24:49;;;;;;;;;0.00;0.00;;;;;14.80;60.45;100764.25;5046567;28;47229;-85
2021/10/21 11:27:18;;;;;;;;;0.00;0.00;;;;;14.58;61.61;100740.81;4983286;28;45432;-84
2021/10/21 11:29:47;;;;;;;;;0.00;0.00;;;;;14.53;62.10;100743.47;5033867;28;45390;-77
2021/10/21 11:32:13;;;;;;;;;0.00;0.00;;;;;14.43;63.33;100763.59;5040964;28;45629;-81